sensor_id;sensor_type;location;lat;lon;timestamp;P1;durP1;ratioP1;P2;durP2;ratioP2
10896;SDS011;5501;51.176;6.470;2024-01-06T00:04:25;11.52;;;5.65;;
10896;SDS011;5501;51.176;6.470;2024-01-06T00:09:30;7.50;;;4.95;;
10896;SDS011;5501;51.176;6.470;2024-01-06T00:14:31;10.25;;;5.43;;
10896;SDS011;5501;51.176;6.470;2024-01-06T00:19:33;8.90;;;4.90;;
10896;SDS011;5501;51.176;6.470;2024-01-06T00:24:34;9.70;;;5.20;;
10896;SDS011;5501;51.176;6.470;2024-01-06T00:29:36;8.07;;;5.25;;
10896;SDS011;5501;51.176;6.470;2024-01-06T00:34:37;7.75;;;5.55;;
10896;SDS011;5501;51.176;6.470;2024-01-06T00:39:39;11.77;;;6.47;;
10896;SDS011;5501;51.176;6.470;2024-01-06T00:44:41;13.45;;;6.50;;
10896;SDS011;5501;51.176;6.470;2024-01-06T00:49:42;10.45;;;6.47;;
10896;SDS011;5501;51.176;6.470;2024-01-06T00:54:44;11.80;;;6.72;;
10896;SDS011;5501;51.176;6.470;2024-01-06T00:59:46;10.00;;;7.15;;
10896;SDS011;5501;51.176;6.470;2024-01-06T01:04:47;7.85;;;5.78;;
10896;SDS011;5501;51.176;6.470;2024-01-06T01:09:49;17.08;;;8.10;;
10896;SDS011;5501;51.176;6.470;2024-01-06T01:14:51;11.23;;;7.13;;
10896;SDS011;5501;51.176;6.470;2024-01-06T01:19:53;12.25;;;8.02;;
10896;SDS011;5501;51.176;6.470;2024-01-06T01:24:54;12.30;;;7.43;;
10896;SDS011;5501;51.176;6.470;2024-01-06T01:29:56;12.73;;;7.70;;
10896;SDS011;5501;51.176;6.470;2024-01-06T01:34:58;17.08;;;7.93;;
10896;SDS011;5501;51.176;6.470;2024-01-06T01:39:59;13.73;;;7.75;;
10896;SDS011;5501;51.176;6.470;2024-01-06T01:45:01;13.18;;;8.55;;
10896;SDS011;5501;51.176;6.470;2024-01-06T01:50:03;11.82;;;7.47;;
10896;SDS011;5501;51.176;6.470;2024-01-06T01:55:05;14.18;;;8.30;;
10896;SDS011;5501;51.176;6.470;2024-01-06T02:00:07;16.17;;;8.73;;
10896;SDS011;5501;51.176;6.470;2024-01-06T02:05:14;18.02;;;9.32;;
10896;SDS011;5501;51.176;6.470;2024-01-06T02:10:17;16.88;;;10.70;;
10896;SDS011;5501;51.176;6.470;2024-01-06T02:15:19;19.65;;;9.93;;
10896;SDS011;5501;51.176;6.470;2024-01-06T02:20:20;15.50;;;9.73;;
10896;SDS011;5501;51.176;6.470;2024-01-06T02:25:25;20.98;;;10.60;;
10896;SDS011;5501;51.176;6.470;2024-01-06T02:30:26;16.63;;;9.65;;
10896;SDS011;5501;51.176;6.470;2024-01-06T02:35:28;21.42;;;10.98;;
10896;SDS011;5501;51.176;6.470;2024-01-06T02:40:29;21.35;;;11.52;;
10896;SDS011;5501;51.176;6.470;2024-01-06T02:45:31;21.00;;;11.23;;
10896;SDS011;5501;51.176;6.470;2024-01-06T02:50:32;18.27;;;11.10;;
10896;SDS011;5501;51.176;6.470;2024-01-06T02:55:34;17.70;;;10.27;;
10896;SDS011;5501;51.176;6.470;2024-01-06T03:00:35;19.80;;;10.73;;
10896;SDS011;5501;51.176;6.470;2024-01-06T03:05:37;24.38;;;11.73;;
10896;SDS011;5501;51.176;6.470;2024-01-06T03:10:39;18.77;;;10.48;;
10896;SDS011;5501;51.176;6.470;2024-01-06T03:15:40;17.02;;;10.13;;
10896;SDS011;5501;51.176;6.470;2024-01-06T03:20:44;22.27;;;9.80;;
10896;SDS011;5501;51.176;6.470;2024-01-06T03:25:46;14.82;;;9.65;;
10896;SDS011;5501;51.176;6.470;2024-01-06T03:30:47;21.95;;;10.43;;
10896;SDS011;5501;51.176;6.470;2024-01-06T03:35:49;16.30;;;9.85;;
10896;SDS011;5501;51.176;6.470;2024-01-06T03:40:51;16.95;;;9.70;;
10896;SDS011;5501;51.176;6.470;2024-01-06T03:45:52;23.08;;;10.40;;
10896;SDS011;5501;51.176;6.470;2024-01-06T03:51:01;17.42;;;9.20;;
10896;SDS011;5501;51.176;6.470;2024-01-06T03:56:03;15.02;;;8.10;;
10896;SDS011;5501;51.176;6.470;2024-01-06T04:01:05;15.77;;;8.10;;
10896;SDS011;5501;51.176;6.470;2024-01-06T04:06:07;11.73;;;6.78;;
10896;SDS011;5501;51.176;6.470;2024-01-06T04:11:08;11.60;;;6.70;;
10896;SDS011;5501;51.176;6.470;2024-01-06T04:16:10;13.52;;;6.78;;
10896;SDS011;5501;51.176;6.470;2024-01-06T04:21:11;11.57;;;6.40;;
10896;SDS011;5501;51.176;6.470;2024-01-06T04:26:13;10.98;;;5.82;;
10896;SDS011;5501;51.176;6.470;2024-01-06T04:31:15;11.63;;;6.70;;
10896;SDS011;5501;51.176;6.470;2024-01-06T04:36:16;9.82;;;5.30;;
10896;SDS011;5501;51.176;6.470;2024-01-06T04:41:18;11.07;;;5.65;;
10896;SDS011;5501;51.176;6.470;2024-01-06T04:46:22;10.55;;;4.90;;
10896;SDS011;5501;51.176;6.470;2024-01-06T04:51:23;8.73;;;5.13;;
10896;SDS011;5501;51.176;6.470;2024-01-06T04:56:27;9.43;;;5.18;;
10896;SDS011;5501;51.176;6.470;2024-01-06T05:01:29;10.95;;;5.60;;
10896;SDS011;5501;51.176;6.470;2024-01-06T05:06:30;9.93;;;6.35;;
10896;SDS011;5501;51.176;6.470;2024-01-06T05:11:32;9.90;;;5.50;;
10896;SDS011;5501;51.176;6.470;2024-01-06T05:16:34;9.65;;;5.05;;
10896;SDS011;5501;51.176;6.470;2024-01-06T05:21:35;8.30;;;4.70;;
10896;SDS011;5501;51.176;6.470;2024-01-06T05:26:39;13.23;;;5.85;;
10896;SDS011;5501;51.176;6.470;2024-01-06T05:31:41;9.70;;;5.45;;
10896;SDS011;5501;51.176;6.470;2024-01-06T05:36:42;8.60;;;4.70;;
10896;SDS011;5501;51.176;6.470;2024-01-06T05:41:44;11.13;;;6.15;;
10896;SDS011;5501;51.176;6.470;2024-01-06T05:46:48;10.48;;;6.03;;
10896;SDS011;5501;51.176;6.470;2024-01-06T05:51:49;9.30;;;5.93;;
10896;SDS011;5501;51.176;6.470;2024-01-06T05:56:51;9.77;;;4.93;;
10896;SDS011;5501;51.176;6.470;2024-01-06T06:01:53;10.07;;;5.68;;
10896;SDS011;5501;51.176;6.470;2024-01-06T06:06:57;14.02;;;6.68;;
10896;SDS011;5501;51.176;6.470;2024-01-06T06:12:02;11.40;;;5.78;;
10896;SDS011;5501;51.176;6.470;2024-01-06T06:17:04;11.98;;;5.32;;
10896;SDS011;5501;51.176;6.470;2024-01-06T06:22:08;11.63;;;5.50;;
10896;SDS011;5501;51.176;6.470;2024-01-06T06:27:10;9.65;;;5.43;;
10896;SDS011;5501;51.176;6.470;2024-01-06T06:32:11;12.25;;;5.78;;
10896;SDS011;5501;51.176;6.470;2024-01-06T06:37:13;11.52;;;5.78;;
10896;SDS011;5501;51.176;6.470;2024-01-06T06:42:17;10.07;;;4.93;;
10896;SDS011;5501;51.176;6.470;2024-01-06T06:47:18;8.60;;;4.30;;
10896;SDS011;5501;51.176;6.470;2024-01-06T06:52:20;11.07;;;5.57;;
10896;SDS011;5501;51.176;6.470;2024-01-06T06:57:22;8.35;;;5.43;;
10896;SDS011;5501;51.176;6.470;2024-01-06T07:02:25;10.93;;;5.38;;
10896;SDS011;5501;51.176;6.470;2024-01-06T07:07:26;9.25;;;5.35;;
10896;SDS011;5501;51.176;6.470;2024-01-06T07:12:28;10.68;;;6.32;;
10896;SDS011;5501;51.176;6.470;2024-01-06T07:17:30;8.60;;;5.85;;
10896;SDS011;5501;51.176;6.470;2024-01-06T07:22:31;13.57;;;6.40;;
10896;SDS011;5501;51.176;6.470;2024-01-06T07:27:33;11.48;;;5.15;;
10896;SDS011;5501;51.176;6.470;2024-01-06T07:32:34;7.93;;;4.38;;
10896;SDS011;5501;51.176;6.470;2024-01-06T07:37:36;11.60;;;6.43;;
10896;SDS011;5501;51.176;6.470;2024-01-06T07:42:38;10.57;;;5.57;;
10896;SDS011;5501;51.176;6.470;2024-01-06T07:47:39;9.60;;;4.63;;
10896;SDS011;5501;51.176;6.470;2024-01-06T07:52:44;7.65;;;4.53;;
10896;SDS011;5501;51.176;6.470;2024-01-06T07:57:48;12.27;;;5.28;;
10896;SDS011;5501;51.176;6.470;2024-01-06T08:02:49;9.13;;;3.85;;
10896;SDS011;5501;51.176;6.470;2024-01-06T08:07:51;8.65;;;5.45;;
10896;SDS011;5501;51.176;6.470;2024-01-06T08:12:53;7.75;;;4.53;;
10896;SDS011;5501;51.176;6.470;2024-01-06T08:17:55;9.73;;;5.07;;
10896;SDS011;5501;51.176;6.470;2024-01-06T08:22:59;9.15;;;5.15;;
10896;SDS011;5501;51.176;6.470;2024-01-06T08:28:01;10.95;;;6.00;;
10896;SDS011;5501;51.176;6.470;2024-01-06T08:33:02;9.55;;;5.50;;
10896;SDS011;5501;51.176;6.470;2024-01-06T08:38:04;7.78;;;4.30;;
10896;SDS011;5501;51.176;6.470;2024-01-06T08:43:06;9.52;;;5.22;;
10896;SDS011;5501;51.176;6.470;2024-01-06T08:48:07;10.15;;;5.07;;
10896;SDS011;5501;51.176;6.470;2024-01-06T08:53:09;7.55;;;4.68;;
10896;SDS011;5501;51.176;6.470;2024-01-06T08:58:11;9.48;;;5.40;;
10896;SDS011;5501;51.176;6.470;2024-01-06T09:03:13;11.15;;;5.40;;
10896;SDS011;5501;51.176;6.470;2024-01-06T09:08:14;10.93;;;4.25;;
10896;SDS011;5501;51.176;6.470;2024-01-06T09:13:16;12.52;;;5.10;;
10896;SDS011;5501;51.176;6.470;2024-01-06T09:18:17;11.73;;;6.22;;
10896;SDS011;5501;51.176;6.470;2024-01-06T09:23:20;12.00;;;7.07;;
10896;SDS011;5501;51.176;6.470;2024-01-06T09:28:25;10.65;;;6.30;;
10896;SDS011;5501;51.176;6.470;2024-01-06T09:33:27;11.65;;;5.90;;
10896;SDS011;5501;51.176;6.470;2024-01-06T09:38:28;12.95;;;5.80;;
10896;SDS011;5501;51.176;6.470;2024-01-06T09:43:30;12.60;;;5.30;;
10896;SDS011;5501;51.176;6.470;2024-01-06T09:48:32;14.13;;;5.68;;
10896;SDS011;5501;51.176;6.470;2024-01-06T09:53:48;10.85;;;5.97;;
10896;SDS011;5501;51.176;6.470;2024-01-06T09:58:53;8.73;;;5.30;;
10896;SDS011;5501;51.176;6.470;2024-01-06T10:03:55;8.38;;;4.68;;
10896;SDS011;5501;51.176;6.470;2024-01-06T10:08:57;11.90;;;5.68;;
10896;SDS011;5501;51.176;6.470;2024-01-06T10:13:59;10.25;;;6.15;;
10896;SDS011;5501;51.176;6.470;2024-01-06T10:19:00;9.68;;;5.47;;
10896;SDS011;5501;51.176;6.470;2024-01-06T10:24:03;11.43;;;5.80;;
10896;SDS011;5501;51.176;6.470;2024-01-06T10:29:08;13.35;;;6.60;;
10896;SDS011;5501;51.176;6.470;2024-01-06T10:34:09;11.57;;;5.50;;
10896;SDS011;5501;51.176;6.470;2024-01-06T10:39:11;11.48;;;6.32;;
10896;SDS011;5501;51.176;6.470;2024-01-06T10:44:17;12.13;;;6.63;;
10896;SDS011;5501;51.176;6.470;2024-01-06T10:49:19;9.45;;;5.90;;
10896;SDS011;5501;51.176;6.470;2024-01-06T10:54:22;10.13;;;5.78;;
10896;SDS011;5501;51.176;6.470;2024-01-06T10:59:26;13.65;;;6.45;;
10896;SDS011;5501;51.176;6.470;2024-01-06T11:04:29;11.20;;;6.53;;
10896;SDS011;5501;51.176;6.470;2024-01-06T11:09:32;11.95;;;6.30;;
10896;SDS011;5501;51.176;6.470;2024-01-06T11:14:38;12.38;;;5.75;;
10896;SDS011;5501;51.176;6.470;2024-01-06T11:24:42;12.82;;;7.32;;
10896;SDS011;5501;51.176;6.470;2024-01-06T11:29:48;10.57;;;6.18;;
10896;SDS011;5501;51.176;6.470;2024-01-06T11:34:53;14.40;;;7.18;;
10896;SDS011;5501;51.176;6.470;2024-01-06T11:39:57;14.45;;;6.07;;
10896;SDS011;5501;51.176;6.470;2024-01-06T11:45:05;13.52;;;7.60;;
10896;SDS011;5501;51.176;6.470;2024-01-06T11:50:07;14.55;;;6.80;;
10896;SDS011;5501;51.176;6.470;2024-01-06T11:55:08;12.63;;;7.05;;
10896;SDS011;5501;51.176;6.470;2024-01-06T12:00:11;16.05;;;8.48;;
10896;SDS011;5501;51.176;6.470;2024-01-06T12:05:16;13.82;;;8.27;;
10896;SDS011;5501;51.176;6.470;2024-01-06T12:10:22;11.73;;;6.70;;
10896;SDS011;5501;51.176;6.470;2024-01-06T12:15:25;12.13;;;6.35;;
10896;SDS011;5501;51.176;6.470;2024-01-06T12:20:27;12.40;;;6.35;;
10896;SDS011;5501;51.176;6.470;2024-01-06T12:25:30;18.13;;;7.00;;
10896;SDS011;5501;51.176;6.470;2024-01-06T12:30:38;11.60;;;5.50;;
10896;SDS011;5501;51.176;6.470;2024-01-06T12:35:41;17.75;;;6.95;;
10896;SDS011;5501;51.176;6.470;2024-01-06T12:40:43;15.98;;;6.75;;
10896;SDS011;5501;51.176;6.470;2024-01-06T12:45:50;13.30;;;7.30;;
10896;SDS011;5501;51.176;6.470;2024-01-06T12:50:54;22.00;;;9.77;;
10896;SDS011;5501;51.176;6.470;2024-01-06T12:55:55;15.30;;;8.02;;
10896;SDS011;5501;51.176;6.470;2024-01-06T13:00:59;14.27;;;6.80;;
10896;SDS011;5501;51.176;6.470;2024-01-06T13:06:01;14.57;;;8.43;;
10896;SDS011;5501;51.176;6.470;2024-01-06T13:11:03;24.88;;;10.18;;
10896;SDS011;5501;51.176;6.470;2024-01-06T13:16:04;16.70;;;8.73;;
10896;SDS011;5501;51.176;6.470;2024-01-06T13:21:07;18.65;;;8.85;;
10896;SDS011;5501;51.176;6.470;2024-01-06T13:26:11;23.73;;;11.20;;
10896;SDS011;5501;51.176;6.470;2024-01-06T13:31:13;22.42;;;10.55;;
10896;SDS011;5501;51.176;6.470;2024-01-06T13:36:15;19.88;;;8.68;;
10896;SDS011;5501;51.176;6.470;2024-01-06T13:41:19;18.23;;;9.48;;
10896;SDS011;5501;51.176;6.470;2024-01-06T13:46:21;23.13;;;9.98;;
10896;SDS011;5501;51.176;6.470;2024-01-06T13:51:23;16.10;;;8.40;;
10896;SDS011;5501;51.176;6.470;2024-01-06T13:56:24;15.27;;;7.40;;
10896;SDS011;5501;51.176;6.470;2024-01-06T14:01:26;13.30;;;6.38;;
10896;SDS011;5501;51.176;6.470;2024-01-06T14:06:28;15.70;;;6.78;;
10896;SDS011;5501;51.176;6.470;2024-01-06T14:11:32;15.52;;;7.82;;
10896;SDS011;5501;51.176;6.470;2024-01-06T14:16:35;14.05;;;6.50;;
10896;SDS011;5501;51.176;6.470;2024-01-06T14:21:36;15.23;;;6.93;;
10896;SDS011;5501;51.176;6.470;2024-01-06T14:26:38;17.90;;;6.78;;
10896;SDS011;5501;51.176;6.470;2024-01-06T14:31:41;14.05;;;6.40;;
10896;SDS011;5501;51.176;6.470;2024-01-06T14:36:44;12.82;;;7.03;;
10896;SDS011;5501;51.176;6.470;2024-01-06T14:41:49;21.27;;;7.45;;
10896;SDS011;5501;51.176;6.470;2024-01-06T14:46:51;21.90;;;10.50;;
10896;SDS011;5501;51.176;6.470;2024-01-06T14:51:54;15.40;;;8.10;;
10896;SDS011;5501;51.176;6.470;2024-01-06T14:56:55;13.70;;;6.68;;
10896;SDS011;5501;51.176;6.470;2024-01-06T15:01:57;17.63;;;8.20;;
10896;SDS011;5501;51.176;6.470;2024-01-06T15:06:59;17.05;;;8.35;;
10896;SDS011;5501;51.176;6.470;2024-01-06T15:12:01;15.20;;;6.75;;
10896;SDS011;5501;51.176;6.470;2024-01-06T15:17:03;16.50;;;7.75;;
10896;SDS011;5501;51.176;6.470;2024-01-06T15:22:04;19.92;;;7.63;;
10896;SDS011;5501;51.176;6.470;2024-01-06T15:27:06;13.35;;;7.78;;
10896;SDS011;5501;51.176;6.470;2024-01-06T15:32:08;14.07;;;7.45;;
10896;SDS011;5501;51.176;6.470;2024-01-06T15:37:09;21.45;;;9.63;;
10896;SDS011;5501;51.176;6.470;2024-01-06T15:42:11;27.55;;;9.43;;
10896;SDS011;5501;51.176;6.470;2024-01-06T15:47:12;18.27;;;8.27;;
10896;SDS011;5501;51.176;6.470;2024-01-06T15:52:14;14.77;;;7.75;;
10896;SDS011;5501;51.176;6.470;2024-01-06T15:57:16;26.67;;;9.73;;
10896;SDS011;5501;51.176;6.470;2024-01-06T16:02:17;16.10;;;8.38;;
10896;SDS011;5501;51.176;6.470;2024-01-06T16:07:19;19.05;;;8.40;;
10896;SDS011;5501;51.176;6.470;2024-01-06T16:12:21;20.23;;;8.75;;
10896;SDS011;5501;51.176;6.470;2024-01-06T16:17:23;19.33;;;9.43;;
10896;SDS011;5501;51.176;6.470;2024-01-06T16:22:24;21.52;;;9.02;;
10896;SDS011;5501;51.176;6.470;2024-01-06T16:27:26;15.45;;;8.45;;
10896;SDS011;5501;51.176;6.470;2024-01-06T16:32:28;16.75;;;9.52;;
10896;SDS011;5501;51.176;6.470;2024-01-06T16:37:29;15.43;;;8.02;;
10896;SDS011;5501;51.176;6.470;2024-01-06T16:42:31;15.90;;;7.80;;
10896;SDS011;5501;51.176;6.470;2024-01-06T16:47:33;16.38;;;8.43;;
10896;SDS011;5501;51.176;6.470;2024-01-06T16:52:34;12.50;;;8.75;;
10896;SDS011;5501;51.176;6.470;2024-01-06T16:57:37;15.40;;;7.90;;
10896;SDS011;5501;51.176;6.470;2024-01-06T17:02:39;15.40;;;9.43;;
10896;SDS011;5501;51.176;6.470;2024-01-06T17:07:40;12.98;;;7.50;;
10896;SDS011;5501;51.176;6.470;2024-01-06T17:12:46;26.25;;;9.07;;
10896;SDS011;5501;51.176;6.470;2024-01-06T17:17:47;14.07;;;8.18;;
10896;SDS011;5501;51.176;6.470;2024-01-06T17:22:51;15.88;;;8.68;;
10896;SDS011;5501;51.176;6.470;2024-01-06T17:27:53;20.88;;;9.57;;
10896;SDS011;5501;51.176;6.470;2024-01-06T17:32:55;14.50;;;8.57;;
10896;SDS011;5501;51.176;6.470;2024-01-06T17:37:56;13.50;;;8.63;;
10896;SDS011;5501;51.176;6.470;2024-01-06T17:42:58;12.27;;;7.75;;
10896;SDS011;5501;51.176;6.470;2024-01-06T17:48:00;19.23;;;9.27;;
10896;SDS011;5501;51.176;6.470;2024-01-06T17:53:02;13.30;;;7.55;;
10896;SDS011;5501;51.176;6.470;2024-01-06T17:58:05;12.93;;;7.88;;
10896;SDS011;5501;51.176;6.470;2024-01-06T18:03:07;16.08;;;7.60;;
10896;SDS011;5501;51.176;6.470;2024-01-06T18:08:08;16.70;;;8.23;;
10896;SDS011;5501;51.176;6.470;2024-01-06T18:13:10;12.00;;;6.88;;
10896;SDS011;5501;51.176;6.470;2024-01-06T18:18:12;11.27;;;7.80;;
10896;SDS011;5501;51.176;6.470;2024-01-06T18:23:13;13.70;;;7.65;;
10896;SDS011;5501;51.176;6.470;2024-01-06T18:28:17;16.48;;;8.38;;
10896;SDS011;5501;51.176;6.470;2024-01-06T18:33:25;13.60;;;8.20;;
10896;SDS011;5501;51.176;6.470;2024-01-06T18:38:27;11.90;;;6.57;;
10896;SDS011;5501;51.176;6.470;2024-01-06T18:43:29;14.38;;;7.32;;
10896;SDS011;5501;51.176;6.470;2024-01-06T18:48:30;8.57;;;5.65;;
10896;SDS011;5501;51.176;6.470;2024-01-06T18:53:32;11.05;;;6.28;;
10896;SDS011;5501;51.176;6.470;2024-01-06T18:58:33;10.75;;;7.25;;
10896;SDS011;5501;51.176;6.470;2024-01-06T19:03:35;11.27;;;6.30;;
10896;SDS011;5501;51.176;6.470;2024-01-06T19:08:36;9.68;;;5.72;;
10896;SDS011;5501;51.176;6.470;2024-01-06T19:13:41;8.07;;;6.18;;
10896;SDS011;5501;51.176;6.470;2024-01-06T19:18:42;10.98;;;5.88;;
10896;SDS011;5501;51.176;6.470;2024-01-06T19:23:44;12.88;;;7.75;;
10896;SDS011;5501;51.176;6.470;2024-01-06T19:28:47;12.57;;;7.47;;
10896;SDS011;5501;51.176;6.470;2024-01-06T19:33:48;14.32;;;7.68;;
10896;SDS011;5501;51.176;6.470;2024-01-06T19:38:53;11.60;;;8.02;;
10896;SDS011;5501;51.176;6.470;2024-01-06T19:43:55;12.70;;;7.18;;
10896;SDS011;5501;51.176;6.470;2024-01-06T19:49:01;12.30;;;7.47;;
10896;SDS011;5501;51.176;6.470;2024-01-06T19:54:03;11.77;;;6.65;;
10896;SDS011;5501;51.176;6.470;2024-01-06T19:59:07;14.73;;;6.75;;
10896;SDS011;5501;51.176;6.470;2024-01-06T20:04:09;14.70;;;8.10;;
10896;SDS011;5501;51.176;6.470;2024-01-06T20:09:12;13.45;;;7.25;;
10896;SDS011;5501;51.176;6.470;2024-01-06T20:14:14;15.88;;;8.18;;
10896;SDS011;5501;51.176;6.470;2024-01-06T20:19:16;14.90;;;8.20;;
10896;SDS011;5501;51.176;6.470;2024-01-06T20:24:20;14.07;;;7.57;;
10896;SDS011;5501;51.176;6.470;2024-01-06T20:29:21;9.95;;;6.63;;
10896;SDS011;5501;51.176;6.470;2024-01-06T20:34:23;18.23;;;8.32;;
10896;SDS011;5501;51.176;6.470;2024-01-06T20:39:25;11.82;;;6.55;;
10896;SDS011;5501;51.176;6.470;2024-01-06T20:44:27;12.82;;;7.10;;
10896;SDS011;5501;51.176;6.470;2024-01-06T20:49:29;15.55;;;8.30;;
10896;SDS011;5501;51.176;6.470;2024-01-06T20:54:32;12.98;;;7.82;;
10896;SDS011;5501;51.176;6.470;2024-01-06T20:59:33;14.88;;;8.10;;
10896;SDS011;5501;51.176;6.470;2024-01-06T21:04:35;9.93;;;7.57;;
10896;SDS011;5501;51.176;6.470;2024-01-06T21:09:36;14.82;;;8.63;;
10896;SDS011;5501;51.176;6.470;2024-01-06T21:14:38;14.57;;;7.05;;
10896;SDS011;5501;51.176;6.470;2024-01-06T21:19:40;11.73;;;6.30;;
10896;SDS011;5501;51.176;6.470;2024-01-06T21:24:44;14.20;;;8.25;;
10896;SDS011;5501;51.176;6.470;2024-01-06T21:29:47;14.93;;;7.43;;
10896;SDS011;5501;51.176;6.470;2024-01-06T21:34:49;18.88;;;9.63;;
10896;SDS011;5501;51.176;6.470;2024-01-06T21:39:53;18.73;;;9.60;;
10896;SDS011;5501;51.176;6.470;2024-01-06T21:44:54;13.20;;;7.18;;
10896;SDS011;5501;51.176;6.470;2024-01-06T21:49:58;18.90;;;9.07;;
10896;SDS011;5501;51.176;6.470;2024-01-06T21:55:00;13.38;;;8.25;;
10896;SDS011;5501;51.176;6.470;2024-01-06T22:00:02;17.88;;;9.07;;
10896;SDS011;5501;51.176;6.470;2024-01-06T22:05:09;19.83;;;9.52;;
10896;SDS011;5501;51.176;6.470;2024-01-06T22:10:11;14.80;;;7.90;;
10896;SDS011;5501;51.176;6.470;2024-01-06T22:15:13;15.30;;;8.82;;
10896;SDS011;5501;51.176;6.470;2024-01-06T22:20:15;15.27;;;8.93;;
10896;SDS011;5501;51.176;6.470;2024-01-06T22:25:16;14.55;;;9.55;;
10896;SDS011;5501;51.176;6.470;2024-01-06T22:30:18;22.85;;;10.35;;
10896;SDS011;5501;51.176;6.470;2024-01-06T22:35:20;17.23;;;8.80;;
10896;SDS011;5501;51.176;6.470;2024-01-06T22:40:22;19.08;;;10.13;;
10896;SDS011;5501;51.176;6.470;2024-01-06T22:45:24;19.15;;;10.02;;
10896;SDS011;5501;51.176;6.470;2024-01-06T22:50:26;23.98;;;12.23;;
10896;SDS011;5501;51.176;6.470;2024-01-06T22:55:28;25.65;;;10.93;;
10896;SDS011;5501;51.176;6.470;2024-01-06T23:00:30;24.52;;;10.30;;
10896;SDS011;5501;51.176;6.470;2024-01-06T23:05:37;20.92;;;11.48;;
10896;SDS011;5501;51.176;6.470;2024-01-06T23:10:39;21.45;;;10.95;;
10896;SDS011;5501;51.176;6.470;2024-01-06T23:15:41;24.67;;;10.93;;
10896;SDS011;5501;51.176;6.470;2024-01-06T23:20:42;21.98;;;10.55;;
10896;SDS011;5501;51.176;6.470;2024-01-06T23:25:44;21.58;;;10.85;;
10896;SDS011;5501;51.176;6.470;2024-01-06T23:30:45;29.67;;;12.90;;
10896;SDS011;5501;51.176;6.470;2024-01-06T23:35:49;29.02;;;13.88;;
10896;SDS011;5501;51.176;6.470;2024-01-06T23:40:50;30.27;;;12.80;;
10896;SDS011;5501;51.176;6.470;2024-01-06T23:45:52;28.70;;;13.07;;
10896;SDS011;5501;51.176;6.470;2024-01-06T23:50:53;30.83;;;14.57;;
10896;SDS011;5501;51.176;6.470;2024-01-06T23:55:55;25.73;;;13.43;;
